createdAt,value
2018-01-02T00:01:23.960Z,6.70
2018-01-02T00:03:52.016Z,6.70
2018-01-02T00:06:20.076Z,6.70
2018-01-02T00:08:50.018Z,6.70
2018-01-02T00:11:18.064Z,6.70
2018-01-02T00:13:46.109Z,6.70
2018-01-02T00:16:14.142Z,6.70
2018-01-02T00:18:42.230Z,6.70
2018-01-02T00:21:10.295Z,6.60
2018-01-02T00:23:38.354Z,6.60
2018-01-02T00:26:07.176Z,6.50
2018-01-02T00:28:35.249Z,6.40
2018-01-02T00:31:04.052Z,6.40
2018-01-02T00:33:32.864Z,6.30
2018-01-02T00:36:00.932Z,6.30
2018-01-02T00:38:29.717Z,6.30
2018-01-02T00:40:57.769Z,6.30
2018-01-02T00:43:25.824Z,6.30
2018-01-02T00:45:53.860Z,6.20
2018-01-02T00:48:21.920Z,6.20
2018-01-02T00:50:49.965Z,6.30
2018-01-02T00:53:18.013Z,6.20
2018-01-02T00:55:46.058Z,6.20
2018-01-02T00:58:14.120Z,6.30
2018-01-02T01:00:42.148Z,6.30
2018-01-02T01:03:10.205Z,6.30
2018-01-02T01:05:38.252Z,6.40
2018-01-02T01:08:07.049Z,6.40
2018-01-02T01:10:35.102Z,6.30
2018-01-02T01:13:03.124Z,6.30
2018-01-02T01:15:31.111Z,6.30
2018-01-02T01:17:59.122Z,6.40
2018-01-02T01:20:27.124Z,6.40
2018-01-02T01:22:55.140Z,6.40
2018-01-02T01:25:23.891Z,6.50
2018-01-02T01:27:51.896Z,6.50
2018-01-02T01:30:19.895Z,6.50
2018-01-02T01:32:47.875Z,6.50
2018-01-02T01:35:16.656Z,6.50
2018-01-02T01:37:44.656Z,6.50
2018-01-02T01:40:12.644Z,6.50
2018-01-02T01:42:41.412Z,6.50
2018-01-02T01:45:09.421Z,6.40
2018-01-02T01:47:37.419Z,6.50
2018-01-02T01:50:06.183Z,6.40
2018-01-02T01:52:34.200Z,6.40
2018-01-02T01:55:02.254Z,6.40
2018-01-02T01:57:30.215Z,6.40
2018-01-02T01:59:58.212Z,6.30
2018-01-02T02:02:26.203Z,6.30
2018-01-02T02:04:54.274Z,6.20
2018-01-02T02:07:22.996Z,6.20
2018-01-02T02:09:50.992Z,6.20
2018-01-02T02:12:19.769Z,6.30
2018-01-02T02:14:47.760Z,6.30
2018-01-02T02:17:15.760Z,6.30
2018-01-02T02:19:44.519Z,6.40
2018-01-02T02:22:12.526Z,6.30
2018-01-02T02:24:40.516Z,6.40
2018-01-02T02:27:08.520Z,6.40
2018-01-02T02:29:37.292Z,6.10
2018-01-02T02:32:05.271Z,6.10
2018-01-02T02:34:33.280Z,6.10
2018-01-02T02:37:02.043Z,5.90
2018-01-02T02:39:30.052Z,5.90
2018-01-02T02:41:58.836Z,5.80
2018-01-02T02:44:26.843Z,5.80
2018-01-02T02:46:54.829Z,5.80
2018-01-02T02:49:23.684Z,5.80
2018-01-02T02:51:51.683Z,5.70
2018-01-02T02:54:19.667Z,5.80
2018-01-02T02:56:47.676Z,5.70
2018-01-02T02:59:16.452Z,5.80
2018-01-02T03:01:44.436Z,5.80
2018-01-02T03:04:12.444Z,5.80
2018-01-02T03:06:41.207Z,5.70
2018-01-02T03:09:09.204Z,5.70
2018-01-02T03:11:37.964Z,5.60
2018-01-02T03:14:05.972Z,5.60
2018-01-02T03:16:33.965Z,5.60
2018-01-02T03:19:01.960Z,5.50
2018-01-02T03:21:29.971Z,5.50
2018-01-02T03:23:58.715Z,5.50
2018-01-02T03:26:26.728Z,5.40
2018-01-02T03:28:54.716Z,5.40
2018-01-02T03:31:23.476Z,5.50
2018-01-02T03:33:51.463Z,5.40
2018-01-02T03:36:19.472Z,5.40
2018-01-02T03:38:47.459Z,5.40
2018-01-02T03:41:16.235Z,5.50
2018-01-02T03:43:44.241Z,5.40
2018-01-02T03:46:12.711Z,5.50
2018-01-02T03:48:40.696Z,5.50
2018-01-02T03:51:08.711Z,5.40
2018-01-02T03:53:36.709Z,5.40
2018-01-02T03:56:04.714Z,5.40
2018-01-02T03:58:32.724Z,5.40
2018-01-02T04:01:00.715Z,5.40
2018-01-02T04:03:28.731Z,5.30
2018-01-02T04:05:57.496Z,5.30
2018-01-02T04:08:25.476Z,5.30
2018-01-02T04:10:53.480Z,5.30
2018-01-02T04:13:21.467Z,5.40
2018-01-02T04:15:50.224Z,5.20
2018-01-02T04:18:18.983Z,5.20
2018-01-02T04:20:47.762Z,5.20
2018-01-02T04:23:15.740Z,5.10
2018-01-02T04:25:43.755Z,5.20
2018-01-02T04:28:11.764Z,5.20
2018-01-02T04:30:39.743Z,5.20
2018-01-02T04:33:07.746Z,5.20
2018-01-02T04:35:35.768Z,5.10
2018-01-02T04:38:04.533Z,5.20
2018-01-02T04:40:32.532Z,5.10
2018-01-02T04:43:01.333Z,5.20
2018-01-02T04:45:29.327Z,5.20
2018-01-02T04:47:57.335Z,5.10
2018-01-02T04:50:25.404Z,5.20
2018-01-02T04:52:54.160Z,5.10
2018-01-02T04:55:22.164Z,5.00
2018-01-02T04:57:50.167Z,5.10
2018-01-02T05:00:19.924Z,5.10
2018-01-02T05:02:47.920Z,5.00
2018-01-02T05:05:15.924Z,5.10
2018-01-02T05:07:43.914Z,5.00
2018-01-02T05:10:11.916Z,5.10
2018-01-02T05:12:40.684Z,5.10
2018-01-02T05:15:08.663Z,5.10
2018-01-02T05:17:36.659Z,5.20
2018-01-02T05:20:04.663Z,5.10
2018-01-02T05:22:33.411Z,5.10
2018-01-02T05:25:01.412Z,5.00
2018-01-02T05:27:29.435Z,5.10
2018-01-02T05:29:58.192Z,5.10
2018-01-02T05:32:26.199Z,5.10
2018-01-02T05:34:54.194Z,5.20
2018-01-02T05:37:22.181Z,5.20
2018-01-02T05:39:50.939Z,5.20
2018-01-02T05:42:18.936Z,5.10
2018-01-02T05:44:46.919Z,5.10
2018-01-02T05:47:14.923Z,5.20
2018-01-02T05:49:43.684Z,5.20
2018-01-02T05:52:11.759Z,5.20
2018-01-02T05:54:39.768Z,5.30
2018-01-02T05:57:07.771Z,5.30
2018-01-02T05:59:35.755Z,5.40
2018-01-02T06:02:04.533Z,5.40
2018-01-02T06:04:32.539Z,5.30
2018-01-02T06:07:01.287Z,5.40
2018-01-02T06:09:29.305Z,5.30
2018-01-02T06:11:57.300Z,5.40
2018-01-02T06:14:25.291Z,5.40
2018-01-02T06:16:54.051Z,5.30
2018-01-02T06:19:22.052Z,5.30
2018-01-02T06:21:50.823Z,5.40
2018-01-02T06:24:18.828Z,5.30
2018-01-02T06:26:46.827Z,5.40
2018-01-02T06:29:14.814Z,5.40
2018-01-02T06:31:43.584Z,5.40
2018-01-02T06:34:11.575Z,5.30
2018-01-02T06:36:39.576Z,5.30
2018-01-02T06:39:07.555Z,5.40
2018-01-02T06:41:35.557Z,5.30
2018-01-02T06:44:04.316Z,5.40
2018-01-02T06:46:32.316Z,5.30
2018-01-02T06:49:00.320Z,5.30
2018-01-02T06:51:29.079Z,5.20
2018-01-02T06:53:57.092Z,5.10
2018-01-02T06:56:25.087Z,5.20
2018-01-02T06:58:53.856Z,5.20
2018-01-02T07:01:21.843Z,5.10
2018-01-02T07:03:49.852Z,5.10
2018-01-02T07:06:18.602Z,5.10
2018-01-02T07:08:46.611Z,5.10
2018-01-02T07:11:15.005Z,5.10
2018-01-02T07:13:43.891Z,5.10
2018-01-02T07:16:11.960Z,5.20
2018-01-02T07:18:39.973Z,5.20
2018-01-02T07:21:07.956Z,5.20
2018-01-02T07:23:35.955Z,5.20
2018-01-02T07:26:04.728Z,5.00
2018-01-02T07:28:32.716Z,5.00
2018-01-02T07:31:00.724Z,5.00
2018-01-02T07:33:29.483Z,4.90
2018-01-02T07:35:57.476Z,4.90
2018-01-02T07:38:25.471Z,4.90
2018-01-02T07:40:53.479Z,4.90
2018-01-02T07:43:22.219Z,4.90
2018-01-02T07:45:50.224Z,4.90
2018-01-02T07:48:18.248Z,5.00
2018-01-02T07:50:47.003Z,4.90
2018-01-02T07:53:15.007Z,4.90
2018-01-02T07:55:43.014Z,5.00
2018-01-02T07:58:11.771Z,5.10
2018-01-02T08:00:39.774Z,5.00
2018-01-02T08:03:07.771Z,5.00
2018-01-02T08:05:36.526Z,5.10
2018-01-02T08:08:04.519Z,5.10
2018-01-02T08:10:32.532Z,5.10
2018-01-02T08:13:01.285Z,5.20
2018-01-02T08:15:29.356Z,5.20
2018-01-02T08:17:57.299Z,5.20
2018-01-02T08:20:26.052Z,5.30
2018-01-02T08:22:54.052Z,5.20
2018-01-02T08:25:22.052Z,5.40
2018-01-02T08:27:50.044Z,5.40
2018-01-02T08:30:18.811Z,5.40
2018-01-02T08:32:46.827Z,5.40
2018-01-02T08:35:14.803Z,5.50
2018-01-02T08:37:42.808Z,5.50
2018-01-02T08:40:10.819Z,5.60
2018-01-02T08:42:38.848Z,5.60
2018-01-02T08:45:06.817Z,5.60
2018-01-02T08:47:34.811Z,5.60
2018-01-02T08:50:02.800Z,5.70
2018-01-02T08:52:30.803Z,5.60
2018-01-02T08:54:58.816Z,5.60
2018-01-02T08:57:26.796Z,5.50
2018-01-02T08:59:54.797Z,5.60
2018-01-02T09:02:22.800Z,5.60
2018-01-02T09:04:50.784Z,5.70
2018-01-02T09:07:18.786Z,5.60
2018-01-02T09:09:46.775Z,5.60
2018-01-02T09:12:21.193Z,5.80
2018-01-02T09:14:49.194Z,5.70
2018-01-02T09:17:17.935Z,5.80
2018-01-02T09:19:45.937Z,5.80
2018-01-02T09:22:13.939Z,5.80
2018-01-02T09:24:41.929Z,5.80
2018-01-02T09:27:09.919Z,5.80
2018-01-02T09:29:38.687Z,5.80
2018-01-02T09:32:06.680Z,5.80
2018-01-02T09:34:34.680Z,5.80
2018-01-02T09:37:03.449Z,5.80
2018-01-02T09:39:31.435Z,5.70
2018-01-02T09:41:59.444Z,5.80
2018-01-02T09:44:28.232Z,5.80
2018-01-02T09:46:56.213Z,5.80
2018-01-02T09:49:24.211Z,5.80
2018-01-02T09:51:52.980Z,5.90
2018-01-02T09:54:20.967Z,5.80
2018-01-02T09:56:49.017Z,5.80
2018-01-02T09:59:17.017Z,5.90
2018-01-02T10:01:45.000Z,5.80
2018-01-02T10:04:13.016Z,5.80
2018-01-02T10:06:41.008Z,5.80
2018-01-02T10:09:09.759Z,5.80
2018-01-02T10:11:37.763Z,5.80
2018-01-02T10:14:05.774Z,5.90
2018-01-02T10:16:33.747Z,5.90
2018-01-02T10:19:01.751Z,5.90
2018-01-02T10:21:30.516Z,5.80
2018-01-02T10:23:58.503Z,5.70
2018-01-02T10:26:26.496Z,5.80
2018-01-02T10:28:55.263Z,5.80
2018-01-02T10:31:23.247Z,5.70
2018-01-02T10:33:51.247Z,5.80
2018-01-02T10:36:19.248Z,5.80
2018-01-02T10:38:48.005Z,5.90
2018-01-02T10:41:16.004Z,5.80
2018-01-02T10:43:45.523Z,5.70
2018-01-02T10:46:13.506Z,5.70
2018-01-02T10:48:41.504Z,5.70
2018-01-02T10:51:09.505Z,5.70
2018-01-02T10:53:38.255Z,5.60
2018-01-02T10:56:06.251Z,5.60
2018-01-02T10:58:34.259Z,5.60
2018-01-02T11:01:03.021Z,5.70
2018-01-02T11:03:31.040Z,5.60
2018-01-02T11:05:59.055Z,5.70
2018-01-02T11:08:27.039Z,5.70
2018-01-02T11:11:00.801Z,5.60
2018-01-02T11:13:34.475Z,5.70
2018-01-02T11:16:02.481Z,5.70
2018-01-02T11:18:30.488Z,5.80
2018-01-02T11:20:58.482Z,5.80
2018-01-02T11:23:26.475Z,5.80
2018-01-02T11:25:55.255Z,5.90
2018-01-02T11:28:23.257Z,5.80
2018-01-02T11:30:51.276Z,5.80
2018-01-02T11:33:19.268Z,5.80
2018-01-02T11:35:47.255Z,5.80
2018-01-02T11:38:15.251Z,5.80
2018-01-02T11:40:43.256Z,5.80
2018-01-02T11:43:11.236Z,5.80
2018-01-02T11:45:39.247Z,5.90
2018-01-02T11:48:08.007Z,5.90
2018-01-02T11:50:36.000Z,5.90
2018-01-02T11:53:03.999Z,6.00
2018-01-02T11:55:32.012Z,5.90
2018-01-02T11:58:00.020Z,5.90
2018-01-02T12:00:28.007Z,5.80
2018-01-02T12:02:56.011Z,5.90
2018-01-02T12:05:23.987Z,6.00
2018-01-02T12:07:51.991Z,6.10
2018-01-02T12:10:19.996Z,6.20
2018-01-02T12:12:47.976Z,6.10
2018-01-02T12:15:16.744Z,6.20
2018-01-02T12:17:44.743Z,6.10
2018-01-02T12:20:13.495Z,6.30
2018-01-02T12:22:41.491Z,6.20
2018-01-02T12:25:09.488Z,6.40
2018-01-02T12:27:37.475Z,6.40
2018-01-02T12:30:05.472Z,6.50
2018-01-02T12:32:33.463Z,6.50
2018-01-02T12:35:02.219Z,6.40
2018-01-02T12:37:30.223Z,6.40
2018-01-02T12:39:58.223Z,6.30
2018-01-02T12:42:26.212Z,6.30
2018-01-02T12:44:54.975Z,6.30
2018-01-02T12:47:22.972Z,6.30
2018-01-02T12:49:50.962Z,6.30
2018-01-02T12:52:18.979Z,6.30
2018-01-02T12:54:46.988Z,6.40
2018-01-02T12:57:14.982Z,6.40
2018-01-02T12:59:42.971Z,6.40
2018-01-02T13:02:10.983Z,6.40
2018-01-02T13:04:39.763Z,6.50
2018-01-02T13:07:07.739Z,6.50
2018-01-02T13:09:35.743Z,6.50
2018-01-02T13:12:03.731Z,6.50
2018-01-02T13:14:32.504Z,6.40
2018-01-02T13:17:00.506Z,6.30
2018-01-02T13:19:28.500Z,6.40
2018-01-02T13:21:57.255Z,6.40
2018-01-02T13:24:25.264Z,6.30
2018-01-02T13:26:53.248Z,6.40
2018-01-02T13:29:21.243Z,6.40
2018-01-02T13:31:50.016Z,6.40
2018-01-02T13:34:18.000Z,6.30
2018-01-02T13:36:46.008Z,6.40
2018-01-02T13:39:14.003Z,6.40
2018-01-02T13:41:42.752Z,6.50
2018-01-02T13:44:10.755Z,6.50
2018-01-02T13:46:38.748Z,6.80
2018-01-02T13:49:06.744Z,7.10
2018-01-02T13:51:35.531Z,7.20
2018-01-02T13:54:03.537Z,7.20
2018-01-02T13:56:32.293Z,7.30
2018-01-02T13:59:00.305Z,7.30
2018-01-02T14:01:28.308Z,7.20
2018-01-02T14:03:56.304Z,6.90
2018-01-02T14:06:24.297Z,6.90
2018-01-02T14:08:52.304Z,6.80
2018-01-02T14:11:20.283Z,6.80
2018-01-02T14:13:48.284Z,6.80
2018-01-02T14:16:16.295Z,6.70
2018-01-02T14:18:45.032Z,6.50
2018-01-02T14:21:13.110Z,6.40
2018-01-02T14:23:41.120Z,6.30
2018-01-02T14:26:09.860Z,6.30
2018-01-02T14:28:38.622Z,6.40
2018-01-02T14:31:06.676Z,6.30
2018-01-02T14:33:34.602Z,6.30
2018-01-02T14:36:02.611Z,6.40
2018-01-02T14:38:31.385Z,6.30
2018-01-02T14:40:59.367Z,6.30
2018-01-02T14:43:27.365Z,6.40
2018-01-02T14:45:56.127Z,6.40
2018-01-02T14:48:24.924Z,6.30
2018-01-02T14:50:52.928Z,6.30
2018-01-02T14:53:20.927Z,6.40
2018-01-02T14:55:49.684Z,6.30
2018-01-02T14:58:17.678Z,6.30
2018-01-02T15:00:45.679Z,6.30
2018-01-02T15:03:13.671Z,6.20
2018-01-02T15:05:41.668Z,6.30
2018-01-02T15:08:10.428Z,6.10
2018-01-02T15:10:38.420Z,6.10
2018-01-02T15:13:06.419Z,6.10
2018-01-02T15:15:34.415Z,6.00
2018-01-02T15:18:03.164Z,5.90
2018-01-02T15:20:31.172Z,5.80
2018-01-02T15:22:59.176Z,5.70
2018-01-02T15:25:27.155Z,5.70
2018-01-02T15:27:55.915Z,5.60
2018-01-02T15:30:23.911Z,5.60
2018-01-02T15:32:51.895Z,5.60
2018-01-02T15:35:19.900Z,5.60
2018-01-02T15:37:48.668Z,5.40
2018-01-02T15:40:16.655Z,5.40
2018-01-02T15:42:44.652Z,5.50
2018-01-02T15:45:12.661Z,5.40
2018-01-02T15:47:41.407Z,5.40
2018-01-02T15:50:09.413Z,5.30
2018-01-02T15:52:37.424Z,5.40
2018-01-02T15:55:06.175Z,5.30
2018-01-02T15:57:34.187Z,5.30
2018-01-02T16:00:02.184Z,5.30
2018-01-02T16:02:30.936Z,5.20
2018-01-02T16:04:58.948Z,5.20
2018-01-02T16:07:26.943Z,5.30
2018-01-02T16:09:55.691Z,5.30
2018-01-02T16:12:23.696Z,5.20
2018-01-02T16:14:51.694Z,5.20
2018-01-02T16:17:19.671Z,5.20
2018-01-02T16:19:47.668Z,5.20
2018-01-02T16:22:15.667Z,5.20
2018-01-02T16:24:43.656Z,5.20
2018-01-02T16:27:12.432Z,5.10
2018-01-02T16:29:40.435Z,5.00
2018-01-02T16:32:09.183Z,5.10
2018-01-02T16:34:37.191Z,5.10
2018-01-02T16:37:05.188Z,5.10
2018-01-02T16:39:33.191Z,5.20
2018-01-02T16:42:01.200Z,5.20
2018-01-02T16:44:29.195Z,5.10
2018-01-02T16:46:57.192Z,5.10
2018-01-02T16:49:26.027Z,5.10
2018-01-02T16:51:54.792Z,5.00
2018-01-02T16:54:22.783Z,5.00
2018-01-02T16:56:50.784Z,5.10
2018-01-02T16:59:18.775Z,5.10
2018-01-02T17:01:47.531Z,5.10
2018-01-02T17:04:15.535Z,5.00
2018-01-02T17:06:43.535Z,5.10
2018-01-02T17:09:11.524Z,5.00
2018-01-02T17:11:40.279Z,4.90
2018-01-02T17:14:08.292Z,4.90
2018-01-02T17:16:36.275Z,4.90
2018-01-02T17:19:04.284Z,4.90
2018-01-02T17:21:32.283Z,4.90
2018-01-02T17:24:00.280Z,4.90
2018-01-02T17:26:28.275Z,4.90
2018-01-02T17:28:56.298Z,4.90
2018-01-02T17:31:24.280Z,4.90
2018-01-02T17:33:53.058Z,4.90
2018-01-02T17:36:21.050Z,4.90
2018-01-02T17:38:49.034Z,4.90
2018-01-02T17:41:17.036Z,4.90
2018-01-02T17:43:45.799Z,4.90
2018-01-02T17:46:13.779Z,4.80
2018-01-02T17:48:41.783Z,4.90
2018-01-02T17:51:09.779Z,4.90
2018-01-02T17:53:38.544Z,4.90
2018-01-02T17:56:06.543Z,4.80
2018-01-02T17:58:34.543Z,4.90
2018-01-02T18:01:03.291Z,4.80
2018-01-02T18:03:31.292Z,4.80
2018-01-02T18:05:59.301Z,4.80
2018-01-02T18:08:27.302Z,4.80
2018-01-02T18:10:56.063Z,4.80
2018-01-02T18:13:24.068Z,4.70
2018-01-02T18:15:52.056Z,4.80
2018-01-02T18:18:20.837Z,4.60
2018-01-02T18:20:49.632Z,4.70
2018-01-02T18:23:17.616Z,4.60
2018-01-02T18:25:45.624Z,4.60
2018-01-02T18:28:14.427Z,4.50
2018-01-02T18:30:42.433Z,4.50
2018-01-02T18:33:10.448Z,4.50
2018-01-02T18:35:38.447Z,4.40
2018-01-02T18:38:06.444Z,4.40
2018-01-02T18:40:34.455Z,4.50
2018-01-02T18:43:02.467Z,4.50
2018-01-02T18:45:30.463Z,4.50
2018-01-02T18:47:58.460Z,4.50
2018-01-02T18:50:26.461Z,4.40
2018-01-02T18:52:54.466Z,4.40
2018-01-02T18:55:23.244Z,4.40
2018-01-02T18:57:51.236Z,4.40
2018-01-02T19:00:20.000Z,4.30
2018-01-02T19:02:47.994Z,4.30
2018-01-02T19:05:15.995Z,4.30
2018-01-02T19:07:44.752Z,4.10
2018-01-02T19:10:12.771Z,4.10
2018-01-02T19:12:40.763Z,4.10
2018-01-02T19:15:09.520Z,4.10
2018-01-02T19:17:38.291Z,4.00
2018-01-02T19:20:06.283Z,4.00
2018-01-02T19:22:34.286Z,4.00
2018-01-02T19:25:02.300Z,4.00
2018-01-02T19:27:30.293Z,4.10
2018-01-02T19:29:59.055Z,4.10
2018-01-02T19:32:27.060Z,4.00
2018-01-02T19:34:55.070Z,4.10
2018-01-02T19:37:23.816Z,4.10
2018-01-02T19:39:51.826Z,4.00
2018-01-02T19:42:19.825Z,4.10
2018-01-02T19:44:47.839Z,4.10
2018-01-02T19:47:15.832Z,4.10
2018-01-02T19:52:23.029Z,4.10
2018-01-02T19:54:51.808Z,4.10
2018-01-02T19:57:19.798Z,4.10
2018-01-02T19:59:47.804Z,4.10
2018-01-02T20:02:15.810Z,4.20
2018-01-02T20:04:43.795Z,4.10
2018-01-02T20:07:11.799Z,4.10
2018-01-02T20:09:39.812Z,4.10
2018-01-02T20:12:07.796Z,4.10
2018-01-02T20:14:36.679Z,4.10
2018-01-02T20:17:04.685Z,4.10
2018-01-02T20:19:32.664Z,4.10
2018-01-02T20:22:01.450Z,4.20
2018-01-02T20:24:29.449Z,4.10
2018-01-02T20:26:58.218Z,4.10
2018-01-02T20:29:26.235Z,4.10
2018-01-02T20:31:54.219Z,4.10
2018-01-02T20:34:25.743Z,4.10
2018-01-02T20:36:54.154Z,4.10
2018-01-02T20:39:23.112Z,4.10
2018-01-02T20:41:51.095Z,4.10
2018-01-02T20:44:22.654Z,4.20
2018-01-02T20:46:50.846Z,4.20
2018-01-02T20:49:18.830Z,4.20
2018-01-02T20:51:46.816Z,4.20
2018-01-02T20:54:14.816Z,4.30
2018-01-02T20:56:42.803Z,4.30
2018-01-02T20:59:10.816Z,4.30
2018-01-02T21:01:38.816Z,4.30
2018-01-02T21:04:07.564Z,4.30
2018-01-02T21:06:35.556Z,4.30
2018-01-02T21:09:03.559Z,4.30
2018-01-02T21:11:31.547Z,4.30
2018-01-02T21:13:59.562Z,4.30
2018-01-02T21:16:27.575Z,4.30
2018-01-02T21:18:55.552Z,4.30
2018-01-02T21:21:23.557Z,4.30
2018-01-02T21:23:51.555Z,4.30
2018-01-02T21:26:19.551Z,4.30
2018-01-02T21:28:47.540Z,2.90
2018-01-02T21:31:16.311Z,4.20
2018-01-02T21:33:44.288Z,4.20
2018-01-02T21:36:12.300Z,4.30
2018-01-02T21:38:41.436Z,4.30
2018-01-02T21:41:09.429Z,4.20
2018-01-02T21:43:37.435Z,4.30
2018-01-02T21:46:05.452Z,4.30
2018-01-02T21:48:33.431Z,4.30
2018-01-02T21:51:02.205Z,4.30
2018-01-02T21:53:30.205Z,4.20
2018-01-02T21:55:58.203Z,4.30
2018-01-02T21:58:26.979Z,4.30
2018-01-02T22:00:54.980Z,4.30
2018-01-02T22:03:22.963Z,4.30
2018-01-02T22:05:51.736Z,4.30
2018-01-02T22:08:19.739Z,4.30
2018-01-02T22:10:47.728Z,4.30
2018-01-02T22:13:15.731Z,4.30
2018-01-02T22:15:43.736Z,4.30
2018-01-02T22:18:11.773Z,4.30
2018-01-02T22:20:39.755Z,4.30
2018-01-02T22:23:08.532Z,4.40
2018-01-02T22:25:36.520Z,4.30
2018-01-02T22:28:04.512Z,4.40
2018-01-02T22:30:32.592Z,4.40
2018-01-02T22:33:00.587Z,4.40
2018-01-02T22:35:28.582Z,4.40
2018-01-02T22:37:57.367Z,4.50
2018-01-02T22:40:25.351Z,4.40
2018-01-02T22:42:53.351Z,4.40
2018-01-02T22:45:22.107Z,4.40
2018-01-02T22:47:50.095Z,4.40
2018-01-02T22:50:18.088Z,4.50
2018-01-02T22:52:46.087Z,4.50
2018-01-02T22:55:14.834Z,4.60
2018-01-02T22:57:42.840Z,4.50
2018-01-02T23:00:10.844Z,4.60
2018-01-02T23:02:38.832Z,4.60
2018-01-02T23:05:06.836Z,4.60
2018-01-02T23:07:35.601Z,4.70
2018-01-02T23:10:03.600Z,4.60
2018-01-02T23:12:31.603Z,4.60
2018-01-02T23:15:00.380Z,4.70
2018-01-02T23:17:28.388Z,4.70
2018-01-02T23:19:56.388Z,4.70
2018-01-02T23:22:24.391Z,4.70
2018-01-02T23:24:52.372Z,4.70
2018-01-02T23:27:20.411Z,4.70
2018-01-02T23:29:49.179Z,4.80
2018-01-02T23:32:17.167Z,4.70
2018-01-02T23:34:45.173Z,4.80
2018-01-02T23:37:13.931Z,4.80
2018-01-02T23:39:41.924Z,4.80
2018-01-02T23:42:09.928Z,4.90
2018-01-02T23:44:37.928Z,4.90
2018-01-02T23:47:06.673Z,4.90
2018-01-02T23:49:34.672Z,4.80
2018-01-02T23:52:02.671Z,4.90
2018-01-02T23:54:30.655Z,4.90
2018-01-02T23:56:58.655Z,5.00
2018-01-02T23:59:27.419Z,4.90
